createdAt,value
2022-07-28T00:01:16.778Z,0
2022-07-28T00:02:56.395Z,0
2022-07-28T00:04:36.050Z,0
2022-07-28T00:06:15.674Z,0
2022-07-28T00:07:55.290Z,0
2022-07-28T00:09:34.917Z,0
2022-07-28T00:11:14.562Z,0
2022-07-28T00:12:54.193Z,0
2022-07-28T00:14:33.810Z,0
2022-07-28T00:16:13.451Z,0
2022-07-28T00:17:53.073Z,0
2022-07-28T00:19:32.717Z,0
2022-07-28T00:21:12.337Z,0
2022-07-28T00:22:51.958Z,0
2022-07-28T00:24:31.590Z,0
2022-07-28T00:26:11.249Z,0
2022-07-28T00:27:50.893Z,0
2022-07-28T00:29:30.485Z,0
2022-07-28T00:31:10.140Z,0
2022-07-28T00:32:49.780Z,0
2022-07-28T00:34:29.386Z,0
2022-07-28T00:36:09.024Z,0
2022-07-28T00:37:48.635Z,0
2022-07-28T00:39:28.291Z,0
2022-07-28T00:41:07.904Z,0
2022-07-28T00:42:47.533Z,0
2022-07-28T00:44:27.177Z,0
2022-07-28T00:46:06.787Z,0
2022-07-28T00:47:46.421Z,0
2022-07-28T00:49:26.050Z,0
2022-07-28T00:51:05.697Z,0
2022-07-28T00:52:45.326Z,0
2022-07-28T00:54:24.964Z,0
2022-07-28T00:56:04.572Z,0
2022-07-28T00:57:44.199Z,0
2022-07-28T00:59:23.850Z,0
2022-07-28T01:01:03.476Z,0
2022-07-28T01:02:43.109Z,0
2022-07-28T01:04:22.730Z,0
2022-07-28T01:06:02.376Z,0
2022-07-28T01:07:41.991Z,0
2022-07-28T01:09:21.619Z,0
2022-07-28T01:11:01.265Z,0
2022-07-28T01:12:40.894Z,0
2022-07-28T01:14:20.528Z,0
2022-07-28T01:16:00.135Z,0
2022-07-28T01:17:39.764Z,0
2022-07-28T01:19:19.418Z,0
2022-07-28T01:20:59.035Z,0
2022-07-28T01:22:38.680Z,0
2022-07-28T01:24:18.293Z,0
2022-07-28T01:25:57.939Z,0
2022-07-28T01:27:37.546Z,0
2022-07-28T01:29:17.191Z,0
2022-07-28T01:30:56.810Z,0
2022-07-28T01:32:36.439Z,0
2022-07-28T01:34:16.080Z,0
2022-07-28T01:35:55.702Z,0
2022-07-28T01:37:35.337Z,0
2022-07-28T01:39:14.976Z,0
2022-07-28T01:40:54.611Z,0
2022-07-28T01:42:34.228Z,0
2022-07-28T01:44:13.887Z,0
2022-07-28T01:45:53.488Z,0
2022-07-28T01:47:33.134Z,0
2022-07-28T01:49:12.758Z,0
2022-07-28T01:50:52.384Z,0
2022-07-28T01:52:32.017Z,0
2022-07-28T01:54:11.640Z,0
2022-07-28T01:55:51.275Z,0
2022-07-28T01:57:30.933Z,0
2022-07-28T01:59:10.529Z,0
2022-07-28T02:00:50.164Z,0
2022-07-28T02:02:29.798Z,0
2022-07-28T02:04:09.444Z,0
2022-07-28T02:05:49.056Z,0
2022-07-28T02:07:28.700Z,0
2022-07-28T02:09:08.317Z,0
2022-07-28T02:10:47.953Z,0
2022-07-28T02:12:27.594Z,0
2022-07-28T02:14:07.202Z,0
2022-07-28T02:15:46.846Z,0
2022-07-28T02:17:26.464Z,0
2022-07-28T02:19:06.104Z,0
2022-07-28T02:20:45.740Z,0
2022-07-28T02:22:25.357Z,0
2022-07-28T02:24:05.002Z,0
2022-07-28T02:25:44.632Z,0
2022-07-28T02:27:24.246Z,0
2022-07-28T02:29:03.882Z,0
2022-07-28T02:30:43.521Z,0
2022-07-28T02:32:23.158Z,0
2022-07-28T02:34:02.784Z,0
2022-07-28T02:35:42.416Z,0
2022-07-28T02:37:22.041Z,0
2022-07-28T02:39:01.659Z,0
2022-07-28T02:40:41.293Z,0
2022-07-28T02:42:20.933Z,0
2022-07-28T02:44:00.577Z,0
2022-07-28T02:45:40.182Z,0
2022-07-28T02:47:19.828Z,0
2022-07-28T02:48:59.453Z,0
2022-07-28T02:50:39.068Z,0
2022-07-28T02:52:18.720Z,0
2022-07-28T02:53:58.336Z,0
2022-07-28T02:55:37.981Z,0
2022-07-28T02:57:17.612Z,0
2022-07-28T02:58:57.228Z,0
2022-07-28T03:00:36.879Z,0
2022-07-28T03:02:16.496Z,0
2022-07-28T03:03:56.122Z,0
2022-07-28T03:05:35.767Z,0
2022-07-28T03:07:15.385Z,0
2022-07-28T03:08:55.036Z,0
2022-07-28T03:10:34.682Z,0
2022-07-28T03:12:14.289Z,0
2022-07-28T03:13:53.908Z,0
2022-07-28T03:15:33.532Z,0
2022-07-28T03:17:13.165Z,0
2022-07-28T03:18:52.790Z,0
2022-07-28T03:20:32.438Z,0
2022-07-28T03:22:12.060Z,0
2022-07-28T03:23:51.689Z,0
2022-07-28T03:25:31.315Z,0
2022-07-28T03:27:10.950Z,0
2022-07-28T03:28:50.587Z,0
2022-07-28T03:30:30.218Z,0
2022-07-28T03:32:09.844Z,0
2022-07-28T03:33:49.466Z,0
2022-07-28T03:35:29.105Z,0
2022-07-28T03:37:08.741Z,0
2022-07-28T03:38:48.367Z,0
2022-07-28T03:40:28.003Z,0
2022-07-28T03:42:07.625Z,0
2022-07-28T03:43:47.257Z,0
2022-07-28T03:45:26.891Z,0
2022-07-28T03:47:06.532Z,0
2022-07-28T03:48:46.160Z,0
2022-07-28T03:50:25.785Z,0
2022-07-28T03:52:05.421Z,0
2022-07-28T03:53:45.031Z,0
2022-07-28T03:55:24.662Z,0
2022-07-28T03:57:04.297Z,0
2022-07-28T03:58:43.943Z,0
2022-07-28T04:00:23.590Z,0
2022-07-28T04:02:03.212Z,0
2022-07-28T04:03:42.824Z,0
2022-07-28T04:05:22.464Z,0
2022-07-28T04:07:02.090Z,0
2022-07-28T04:08:41.716Z,0
2022-07-28T04:10:21.343Z,0
2022-07-28T04:12:00.968Z,0
2022-07-28T04:13:40.613Z,0
2022-07-28T04:15:20.244Z,0
2022-07-28T04:16:59.864Z,0
2022-07-28T04:18:39.495Z,0
2022-07-28T04:20:19.133Z,0
2022-07-28T04:21:58.764Z,0
2022-07-28T04:23:38.404Z,0
2022-07-28T04:25:18.021Z,0
2022-07-28T04:26:57.651Z,0
2022-07-28T04:28:37.286Z,0
2022-07-28T04:30:16.919Z,0
2022-07-28T04:31:56.562Z,0
2022-07-28T04:33:36.180Z,0
2022-07-28T04:35:15.808Z,0
2022-07-28T04:36:55.435Z,0
2022-07-28T04:38:35.078Z,0
2022-07-28T04:40:14.698Z,0
2022-07-28T04:41:54.329Z,0
2022-07-28T04:43:33.963Z,0
2022-07-28T04:45:13.583Z,0
2022-07-28T04:46:53.216Z,0
2022-07-28T04:48:32.838Z,0
2022-07-28T04:50:12.482Z,0
2022-07-28T04:51:52.131Z,0
2022-07-28T04:53:31.743Z,0
2022-07-28T04:55:11.370Z,0
2022-07-28T04:56:51.006Z,0
2022-07-28T04:58:30.652Z,0
2022-07-28T05:00:10.269Z,0
2022-07-28T05:01:49.894Z,0
2022-07-28T05:03:29.516Z,0
2022-07-28T05:05:09.164Z,0
2022-07-28T05:06:48.785Z,0
2022-07-28T05:08:28.416Z,0
2022-07-28T05:10:08.059Z,0
2022-07-28T05:11:47.669Z,0
2022-07-28T05:13:27.294Z,0
2022-07-28T05:15:06.938Z,0
2022-07-28T05:16:46.558Z,0
2022-07-28T05:18:26.184Z,0
2022-07-28T05:20:05.831Z,0
2022-07-28T05:21:45.467Z,0
2022-07-28T05:23:25.096Z,0
2022-07-28T05:25:04.729Z,0
2022-07-28T05:26:44.351Z,0
2022-07-28T05:28:23.971Z,0
2022-07-28T05:30:03.618Z,0
2022-07-28T05:31:43.259Z,0
2022-07-28T05:33:22.873Z,0
2022-07-28T05:35:02.506Z,0
2022-07-28T05:36:42.123Z,0
2022-07-28T05:38:21.765Z,0
2022-07-28T05:40:01.397Z,0
2022-07-28T05:41:41.011Z,0
2022-07-28T05:43:20.662Z,0
2022-07-28T05:45:00.289Z,0
2022-07-28T05:46:39.908Z,0
2022-07-28T05:48:19.543Z,0
2022-07-28T05:49:59.174Z,0
2022-07-28T05:51:38.804Z,0
2022-07-28T05:53:18.433Z,0
2022-07-28T05:54:58.075Z,0
2022-07-28T05:56:37.690Z,0
2022-07-28T05:58:17.338Z,0
2022-07-28T05:59:56.992Z,0
2022-07-28T06:01:36.594Z,0
2022-07-28T06:03:16.201Z,0
2022-07-28T06:04:55.851Z,0
2022-07-28T06:06:35.472Z,0
2022-07-28T06:08:15.102Z,0
2022-07-28T06:09:54.760Z,0
2022-07-28T06:11:34.364Z,0
2022-07-28T06:13:14.011Z,0
2022-07-28T06:14:53.625Z,0
2022-07-28T06:16:33.254Z,0
2022-07-28T06:18:12.897Z,0
2022-07-28T06:19:52.529Z,0
2022-07-28T06:21:32.149Z,0
2022-07-28T06:23:11.801Z,0
2022-07-28T06:24:51.401Z,0
2022-07-28T06:26:31.043Z,0
2022-07-28T06:28:10.679Z,0
2022-07-28T06:29:50.296Z,0
2022-07-28T06:31:29.942Z,0
2022-07-28T06:33:09.569Z,0
2022-07-28T06:34:49.219Z,0
2022-07-28T06:36:28.823Z,0
2022-07-28T06:38:08.462Z,0
2022-07-28T06:39:48.094Z,0
2022-07-28T06:41:27.747Z,0
2022-07-28T06:43:07.338Z,0
2022-07-28T06:44:46.972Z,0
2022-07-28T06:46:26.614Z,0
2022-07-28T06:48:06.243Z,0
2022-07-28T06:49:45.865Z,0
2022-07-28T06:51:25.498Z,0
2022-07-28T06:53:05.169Z,0
2022-07-28T06:54:44.760Z,0
2022-07-28T06:56:24.395Z,0
2022-07-28T06:58:04.016Z,0
2022-07-28T06:59:43.654Z,0
2022-07-28T07:01:23.279Z,0
2022-07-28T07:03:02.903Z,0
2022-07-28T07:04:42.542Z,0
2022-07-28T07:06:22.191Z,0
2022-07-28T07:08:01.804Z,0
2022-07-28T07:09:41.431Z,0
2022-07-28T07:11:21.071Z,0
2022-07-28T07:13:00.698Z,0
2022-07-28T07:14:40.329Z,0
2022-07-28T07:16:19.981Z,0
2022-07-28T07:17:59.620Z,0
2022-07-28T07:19:39.230Z,0
2022-07-28T07:21:18.865Z,0
2022-07-28T07:22:58.486Z,0
2022-07-28T07:24:38.106Z,0
2022-07-28T07:26:17.734Z,0
2022-07-28T07:27:57.387Z,0
2022-07-28T07:29:36.999Z,0
2022-07-28T07:31:16.640Z,0
2022-07-28T07:35:05.006Z,0
2022-07-28T07:36:41.143Z,0
2022-07-28T07:38:20.772Z,0
2022-07-28T07:40:00.407Z,0
2022-07-28T07:41:40.027Z,0
2022-07-28T07:43:19.653Z,0
2022-07-28T07:44:59.295Z,0
2022-07-28T07:48:59.451Z,0
2022-07-28T07:50:38.692Z,0
2022-07-28T07:52:25.460Z,0
2022-07-28T07:54:12.542Z,0
2022-07-28T07:55:48.665Z,0
2022-07-28T07:57:24.778Z,0
2022-07-28T07:58:58.386Z,0
2022-07-28T08:00:34.498Z,0
2022-07-28T08:02:14.145Z,0
2022-07-28T08:03:06.745Z,0
2022-07-28T08:04:42.861Z,0
2022-07-28T08:06:18.975Z,0
2022-07-28T08:07:58.602Z,0
2022-07-28T08:09:38.244Z,0
2022-07-28T08:12:49.160Z,0
2022-07-28T08:14:26.759Z,0
2022-07-28T08:16:02.857Z,0
2022-07-28T08:17:41.811Z,0
2022-07-28T08:19:21.407Z,0
2022-07-28T08:51:39.420Z,0
2022-07-28T08:53:15.540Z,0
2022-07-28T08:54:55.173Z,0
2022-07-28T08:56:34.831Z,0
2022-07-28T08:58:14.427Z,0
2022-07-28T08:59:54.063Z,0
2022-07-28T09:01:33.691Z,0
2022-07-28T09:03:13.324Z,0
2022-07-28T09:04:52.953Z,0
2022-07-28T09:06:32.593Z,0
2022-07-28T09:08:12.203Z,0
2022-07-28T09:09:51.836Z,0
2022-07-28T09:11:31.462Z,0
2022-07-28T09:13:11.110Z,0
2022-07-28T09:14:50.727Z,0
2022-07-28T09:16:30.364Z,0
2022-07-28T09:18:10.111Z,0
2022-07-28T09:19:49.616Z,0
2022-07-28T09:21:29.244Z,0
2022-07-28T09:23:08.887Z,0
2022-07-28T09:24:48.501Z,0
2022-07-28T09:26:28.139Z,0
2022-07-28T09:28:07.764Z,0
2022-07-28T12:04:07.524Z,100
2022-07-28T12:05:43.645Z,100
2022-07-28T12:07:23.438Z,100
2022-07-28T12:09:03.209Z,100
2022-07-28T12:10:42.958Z,100
2022-07-28T12:12:22.727Z,100
2022-07-28T12:14:02.495Z,100
2022-07-28T12:15:42.278Z,100
2022-07-28T12:17:22.046Z,100
2022-07-28T12:19:01.816Z,100
2022-07-28T12:20:41.658Z,100
2022-07-28T12:22:21.360Z,100
2022-07-28T12:24:01.162Z,100
2022-07-28T12:27:20.653Z,100
2022-07-28T12:29:00.510Z,100
2022-07-28T12:30:40.195Z,100
2022-07-28T12:32:19.967Z,100
2022-07-28T12:33:59.738Z,100
2022-07-28T12:35:39.534Z,100
2022-07-28T12:37:19.282Z,100
2022-07-28T12:38:59.064Z,100
2022-07-28T12:40:38.826Z,100
2022-07-28T12:42:18.596Z,100
2022-07-28T12:43:58.352Z,100
2022-07-28T12:45:38.123Z,100
2022-07-28T12:47:17.909Z,100
2022-07-28T12:48:57.676Z,100
2022-07-28T12:50:37.449Z,100
2022-07-28T12:52:17.206Z,100
2022-07-28T12:53:56.982Z,100
2022-07-28T12:55:36.758Z,100
2022-07-28T12:57:16.517Z,100
2022-07-28T13:00:36.060Z,100
2022-07-28T13:02:15.835Z,100
2022-07-28T13:03:55.614Z,100
2022-07-28T13:05:35.380Z,100
2022-07-28T13:07:15.142Z,100
2022-07-28T13:08:54.914Z,100
2022-07-28T13:10:34.681Z,100
2022-07-28T13:12:14.468Z,100
2022-07-28T13:13:54.227Z,100
2022-07-28T13:17:13.791Z,100
2022-07-28T13:18:53.545Z,100
2022-07-28T13:20:33.321Z,100
2022-07-28T13:22:13.089Z,100
2022-07-28T13:23:52.857Z,100
2022-07-28T13:25:32.620Z,100
2022-07-28T13:27:12.395Z,100
2022-07-28T13:28:52.177Z,100
2022-07-28T13:30:31.929Z,100
2022-07-28T13:32:11.710Z,100
2022-07-28T13:33:51.479Z,100
2022-07-28T13:35:31.242Z,100
2022-07-28T13:37:11.021Z,100
2022-07-28T13:38:50.783Z,100
2022-07-28T13:40:30.572Z,100
2022-07-28T13:42:10.323Z,100
2022-07-28T13:43:50.084Z,100
2022-07-28T13:45:29.857Z,100
2022-07-28T13:47:09.640Z,100
2022-07-28T13:48:49.398Z,100
2022-07-28T13:50:29.178Z,100
2022-07-28T13:52:08.930Z,100
2022-07-28T13:53:48.714Z,100
2022-07-28T13:55:28.480Z,100
2022-07-28T13:57:08.250Z,100
2022-07-28T14:00:27.799Z,100
2022-07-28T14:02:07.552Z,100
2022-07-28T14:03:47.330Z,100
2022-07-28T14:05:27.095Z,100
2022-07-28T14:07:06.880Z,100
2022-07-28T14:08:46.634Z,100
2022-07-28T14:10:26.417Z,100
2022-07-28T14:12:06.173Z,100
2022-07-28T14:13:45.958Z,100
2022-07-28T14:15:25.723Z,100
2022-07-28T14:17:05.493Z,100
2022-07-28T14:18:45.254Z,100
2022-07-28T14:20:25.024Z,100
2022-07-28T14:22:04.810Z,100
2022-07-28T14:23:44.564Z,100
2022-07-28T14:27:04.102Z,100
2022-07-28T14:30:23.669Z,100
2022-07-28T14:32:03.421Z,100
2022-07-28T14:33:43.231Z,100
2022-07-28T14:35:22.948Z,100
2022-07-28T14:37:02.736Z,100
2022-07-28T14:38:42.511Z,100
2022-07-28T14:40:22.262Z,100
2022-07-28T14:42:02.035Z,100
2022-07-28T14:43:41.808Z,100
2022-07-28T14:45:21.581Z,100
2022-07-28T14:48:41.107Z,100
2022-07-28T14:50:20.899Z,100
2022-07-28T14:52:00.659Z,100
2022-07-28T14:55:20.187Z,100
2022-07-28T14:56:59.962Z,100
2022-07-28T14:58:39.733Z,100
2022-07-28T15:00:19.489Z,100
2022-07-28T15:01:59.270Z,100
2022-07-28T15:03:39.034Z,100
2022-07-28T15:05:18.805Z,100
2022-07-28T15:06:58.571Z,100
2022-07-28T15:08:38.345Z,100
2022-07-28T15:10:18.107Z,100
2022-07-28T15:11:57.873Z,100
2022-07-28T15:13:37.641Z,100
2022-07-28T15:15:17.421Z,100
2022-07-28T15:16:57.178Z,100
2022-07-28T15:20:16.738Z,100
2022-07-28T15:21:56.485Z,100
2022-07-28T15:23:36.269Z,100
2022-07-28T15:25:16.039Z,100
2022-07-28T15:26:55.813Z,100
2022-07-28T15:30:15.340Z,100
2022-07-28T15:31:55.103Z,100
2022-07-28T15:33:34.892Z,100
2022-07-28T15:35:14.647Z,100
2022-07-28T15:36:54.425Z,100
2022-07-28T15:38:34.211Z,100
2022-07-28T15:40:13.961Z,100
2022-07-28T15:41:53.732Z,100
2022-07-28T15:43:33.498Z,100
2022-07-28T15:45:13.282Z,100
2022-07-28T15:46:53.053Z,100
2022-07-28T15:48:32.815Z,100
2022-07-28T15:50:12.577Z,100
2022-07-28T15:53:32.121Z,100
2022-07-28T15:55:11.904Z,100
2022-07-28T15:56:51.667Z,100
2022-07-28T15:58:31.437Z,100
2022-07-28T16:00:11.217Z,100
2022-07-28T16:01:50.991Z,100
2022-07-28T16:03:30.765Z,100
2022-07-28T16:06:50.313Z,100
2022-07-28T16:08:30.082Z,100
2022-07-28T16:10:09.848Z,100
2022-07-28T16:11:49.610Z,100
2022-07-28T16:13:29.386Z,100
2022-07-28T16:16:48.907Z,100
2022-07-28T16:18:28.683Z,100
2022-07-28T16:20:08.461Z,100
2022-07-28T16:21:48.220Z,100
2022-07-28T16:23:27.998Z,100
2022-07-28T16:25:07.765Z,100
2022-07-28T16:26:47.545Z,100
2022-07-28T16:28:27.317Z,100
2022-07-28T16:30:07.082Z,100
2022-07-28T16:31:46.857Z,100
2022-07-28T16:33:26.626Z,100
2022-07-28T16:35:06.403Z,100
2022-07-28T16:36:46.171Z,100
2022-07-28T16:38:25.940Z,100
2022-07-28T16:40:05.708Z,100
2022-07-28T16:41:45.477Z,100
2022-07-28T16:43:25.245Z,100
2022-07-28T16:45:05.024Z,100
2022-07-28T16:48:24.559Z,100
2022-07-28T16:50:04.347Z,100
2022-07-28T16:51:44.106Z,100
2022-07-28T16:53:23.867Z,100
2022-07-28T16:55:03.663Z,100
2022-07-28T16:56:43.410Z,100
2022-07-28T16:58:23.210Z,100
2022-07-28T17:00:02.959Z,100
2022-07-28T17:01:42.735Z,100
2022-07-28T17:03:22.491Z,100
2022-07-28T17:06:42.041Z,100
2022-07-28T17:08:21.812Z,100
2022-07-28T17:10:01.580Z,100
2022-07-28T17:11:41.337Z,100
2022-07-28T17:13:21.120Z,100
2022-07-28T17:15:00.898Z,100
2022-07-28T17:16:40.658Z,100
2022-07-28T17:18:20.426Z,100
2022-07-28T17:20:00.199Z,100
2022-07-28T17:21:39.971Z,100
2022-07-28T17:23:19.741Z,100
2022-07-28T17:24:59.544Z,100
2022-07-28T17:26:39.288Z,100
2022-07-28T17:28:19.053Z,100
2022-07-28T17:29:58.820Z,100
2022-07-28T17:31:38.589Z,100
2022-07-28T17:33:18.366Z,100
2022-07-28T17:34:58.142Z,100
2022-07-28T17:36:37.923Z,100
2022-07-28T17:38:17.688Z,100
2022-07-28T17:39:57.450Z,100
2022-07-28T17:41:37.222Z,100
2022-07-28T17:43:17.001Z,100
2022-07-28T17:44:56.750Z,100
2022-07-28T17:46:36.538Z,100
2022-07-28T17:48:16.308Z,100
2022-07-28T17:49:56.069Z,100
2022-07-28T17:51:35.835Z,100
2022-07-28T17:53:15.608Z,100
2022-07-28T17:54:55.375Z,100
2022-07-28T17:56:35.163Z,100
2022-07-28T17:58:14.949Z,100
2022-07-28T17:59:54.691Z,100
2022-07-28T18:01:34.457Z,100
2022-07-28T18:03:14.244Z,100
2022-07-28T18:04:54.008Z,100
2022-07-28T18:06:33.790Z,100
2022-07-28T18:08:13.545Z,100
2022-07-28T18:09:53.335Z,100
2022-07-28T18:11:33.083Z,100
2022-07-28T18:13:12.868Z,100
2022-07-28T18:14:52.631Z,100
2022-07-28T18:16:32.415Z,100
2022-07-28T18:18:12.171Z,100
2022-07-28T18:19:51.940Z,100
2022-07-28T18:21:31.708Z,100
2022-07-28T18:23:11.496Z,100
2022-07-28T18:24:51.263Z,100
2022-07-28T18:26:31.050Z,100
2022-07-28T18:28:10.803Z,100
2022-07-28T18:29:50.579Z,100
2022-07-28T18:31:30.330Z,100
2022-07-28T18:33:10.140Z,100
2022-07-28T18:34:49.872Z,100
2022-07-28T18:36:29.647Z,100
2022-07-28T18:38:09.420Z,100
2022-07-28T18:39:49.184Z,100
2022-07-28T18:41:28.967Z,100
2022-07-28T18:43:08.736Z,100
2022-07-28T18:46:28.272Z,100
2022-07-28T18:48:08.069Z,100
2022-07-28T18:49:47.802Z,100
2022-07-28T18:51:27.589Z,100
2022-07-28T18:53:07.341Z,100
2022-07-28T18:54:47.115Z,100
2022-07-28T18:56:26.872Z,100
2022-07-28T18:58:06.632Z,100
2022-07-28T18:59:46.414Z,100
2022-07-28T19:01:26.192Z,100
2022-07-28T19:03:05.949Z,100
2022-07-28T19:04:45.713Z,100
2022-07-28T19:06:25.472Z,100
2022-07-28T19:09:45.024Z,100
2022-07-28T19:11:24.772Z,100
2022-07-28T19:13:04.557Z,97
2022-07-28T19:14:44.309Z,91
2022-07-28T19:16:24.089Z,85
2022-07-28T19:19:43.606Z,81
2022-07-28T19:21:23.378Z,80
2022-07-28T19:23:03.152Z,80
2022-07-28T19:24:42.918Z,80
2022-07-28T19:26:22.684Z,80
2022-07-28T19:29:42.216Z,80
2022-07-28T19:31:21.994Z,79
2022-07-28T19:33:01.761Z,79
2022-07-28T19:34:41.529Z,79
2022-07-28T19:36:21.289Z,79
2022-07-28T19:38:01.060Z,79
2022-07-28T19:39:40.818Z,79
2022-07-28T19:41:20.601Z,79
2022-07-28T19:43:00.355Z,79
2022-07-28T19:44:40.137Z,79
2022-07-28T19:46:19.902Z,79
2022-07-28T19:47:59.645Z,78
2022-07-28T19:49:39.424Z,78
2022-07-28T19:51:19.191Z,78
2022-07-28T19:52:58.967Z,78
2022-07-28T19:54:38.726Z,78
2022-07-28T19:56:18.506Z,78
2022-07-28T19:57:58.267Z,78
2022-07-28T19:59:38.044Z,78
2022-07-28T20:01:17.802Z,78
2022-07-28T20:02:57.579Z,78
2022-07-28T20:04:37.343Z,78
2022-07-28T20:06:17.109Z,78
2022-07-28T20:07:56.868Z,78
2022-07-28T20:09:36.633Z,77
2022-07-28T20:11:16.395Z,78
2022-07-28T20:12:56.177Z,78
2022-07-28T20:14:35.944Z,77
2022-07-28T20:16:15.697Z,77
2022-07-28T20:17:55.466Z,77
2022-07-28T20:19:35.240Z,77
2022-07-28T20:21:15.008Z,77
2022-07-28T20:22:54.777Z,77
2022-07-28T20:24:34.535Z,77
2022-07-28T20:26:14.303Z,77
2022-07-28T20:29:33.831Z,77
2022-07-28T20:31:13.613Z,77
2022-07-28T20:32:53.375Z,77
2022-07-28T20:34:33.139Z,77
2022-07-28T20:36:12.902Z,77
2022-07-28T20:37:52.680Z,77
2022-07-28T20:39:32.453Z,77
2022-07-28T20:41:12.232Z,77
2022-07-28T20:42:51.972Z,77
2022-07-28T20:44:31.745Z,77
2022-07-28T20:46:11.490Z,77
2022-07-28T20:47:51.262Z,77
2022-07-28T20:49:31.036Z,77
2022-07-28T20:51:10.798Z,77
2022-07-28T20:52:50.547Z,77
2022-07-28T20:54:30.335Z,76
2022-07-28T20:56:10.084Z,77
2022-07-28T20:57:49.856Z,76
2022-07-28T20:59:29.612Z,77
2022-07-28T21:01:09.388Z,76
2022-07-28T21:02:49.160Z,76
2022-07-28T21:04:28.908Z,76
2022-07-28T21:06:08.689Z,76
2022-07-28T21:07:48.457Z,76
2022-07-28T21:09:28.212Z,76
2022-07-28T21:11:08.000Z,76
2022-07-28T21:12:47.739Z,76
2022-07-28T21:14:27.494Z,76
2022-07-28T21:16:07.258Z,76
2022-07-28T21:19:26.797Z,76
2022-07-28T21:21:06.565Z,76
2022-07-28T21:22:46.317Z,76
2022-07-28T21:24:26.095Z,76
2022-07-28T21:26:05.842Z,76
2022-07-28T21:29:25.488Z,76
2022-07-28T21:31:05.142Z,76
2022-07-28T21:32:44.908Z,76
2022-07-28T21:36:04.445Z,76
2022-07-28T21:37:44.205Z,76
2022-07-28T21:39:23.970Z,76
2022-07-28T21:41:03.733Z,76
2022-07-28T21:42:43.497Z,76
2022-07-28T21:44:23.266Z,76
2022-07-28T21:46:03.031Z,76
2022-07-28T21:47:42.785Z,75
2022-07-28T21:49:22.563Z,75
2022-07-28T21:51:02.319Z,75
2022-07-28T21:52:42.089Z,75
2022-07-28T21:54:21.853Z,75
2022-07-28T21:56:01.626Z,75
2022-07-28T21:57:41.392Z,75
2022-07-28T21:59:21.145Z,75
2022-07-28T22:01:00.911Z,75
2022-07-28T22:02:40.679Z,75
2022-07-28T22:04:20.464Z,75
2022-07-28T22:06:00.219Z,75
2022-07-28T22:07:39.965Z,75
2022-07-28T22:09:19.718Z,75
2022-07-28T22:10:59.489Z,75
2022-07-28T22:12:39.252Z,75
2022-07-28T22:14:19.023Z,75
2022-07-28T22:15:58.796Z,75
2022-07-28T22:17:38.555Z,75
2022-07-28T22:19:18.315Z,75
2022-07-28T22:20:58.069Z,75
2022-07-28T22:22:37.846Z,75
2022-07-28T22:24:17.601Z,75
2022-07-28T22:25:57.366Z,75
2022-07-28T22:27:37.144Z,75
2022-07-28T22:29:16.908Z,75
2022-07-28T22:30:56.686Z,75
2022-07-28T22:32:36.434Z,75
2022-07-28T22:34:16.192Z,75
2022-07-28T22:35:55.956Z,75
2022-07-28T22:39:15.499Z,75
2022-07-28T22:40:55.265Z,75
2022-07-28T22:42:35.021Z,75
2022-07-28T22:44:14.782Z,75
2022-07-28T22:45:54.538Z,75
2022-07-28T22:49:14.069Z,75
2022-07-28T22:50:53.833Z,75
2022-07-28T22:52:33.623Z,75
2022-07-28T22:54:13.365Z,75
2022-07-28T22:55:53.158Z,75
2022-07-28T22:57:32.892Z,75
2022-07-28T22:59:12.660Z,75
2022-07-28T23:00:52.440Z,75
2022-07-28T23:02:32.194Z,75
2022-07-28T23:04:11.975Z,75
2022-07-28T23:05:51.726Z,75
2022-07-28T23:07:31.492Z,75
2022-07-28T23:09:11.246Z,75
2022-07-28T23:10:51.023Z,75
2022-07-28T23:12:30.781Z,75
2022-07-28T23:15:50.317Z,74
2022-07-28T23:19:09.841Z,74
2022-07-28T23:20:49.644Z,74
2022-07-28T23:22:29.361Z,75
2022-07-28T23:24:09.126Z,74
2022-07-28T23:25:48.902Z,75
2022-07-28T23:27:28.656Z,75
2022-07-28T23:29:08.419Z,75
2022-07-28T23:30:48.180Z,74
2022-07-28T23:32:27.949Z,74
2022-07-28T23:34:07.711Z,74
2022-07-28T23:35:47.500Z,74
2022-07-28T23:37:27.256Z,74
2022-07-28T23:39:07.006Z,74
2022-07-28T23:40:46.768Z,74
2022-07-28T23:42:26.545Z,74
2022-07-28T23:45:46.071Z,74
2022-07-28T23:47:25.841Z,74
2022-07-28T23:49:05.602Z,74
2022-07-28T23:50:45.365Z,74
2022-07-28T23:52:25.127Z,74
2022-07-28T23:54:04.899Z,74
2022-07-28T23:55:44.659Z,74
2022-07-28T23:57:24.430Z,74
2022-07-28T23:59:04.184Z,74
